Time;durP1;ratioP1;P1;durP2;ratioP2;P2;SDS_P1;SDS_P2;PMS_P1;PMS_P2;Temp;Humidity;BMP_temperature;BMP_pressure;BME280_temperature;BME280_humidity;BME280_pressure;Samples;Min_cycle;Max_cycle;Signal;HPM_P1;HPM_P2
2022/05/14 00:00:18;;;;;;;12.57;11.50;;;;;;;15.84;65.39;92777.53;5050003;28;20218;-79
2022/05/14 00:02:44;;;;;;;11.97;11.03;;;;;;;15.92;65.34;92784.69;5048509;28;20241;-79
2022/05/14 00:05:09;;;;;;;11.47;10.53;;;;;;;15.88;64.91;92771.34;5048831;28;20186;-80
2022/05/14 00:07:36;;;;;;;10.63;9.93;;;;;;;15.88;65.76;92781.09;5051690;28;20226;-79
2022/05/14 00:10:02;;;;;;;11.10;10.40;;;;;;;15.64;65.69;92752.53;5050010;28;20220;-79
2022/05/14 00:15:12;;;;;;;11.63;10.93;;;;;;;15.57;66.37;92756.69;5049253;28;20224;-79
2022/05/14 00:17:37;;;;;;;10.70;10.10;;;;;;;15.67;66.77;92782.75;5049059;28;20230;-79
2022/05/14 00:20:03;;;;;;;9.87;9.37;;;;;;;15.71;66.25;92778.41;5049877;28;20213;-79
2022/05/14 00:22:28;;;;;;;10.40;9.77;;;;;;;15.74;66.16;92769.91;5049313;28;20221;-78
2022/05/14 00:24:54;;;;;;;12.20;11.40;;;;;;;15.66;66.34;92771.44;5049524;28;20209;-78
2022/05/14 00:27:22;;;;;;;11.70;10.80;;;;;;;15.53;66.81;92756.53;5050054;28;20233;-79
2022/05/14 00:29:47;;;;;;;10.53;9.73;;;;;;;15.54;65.91;92754.69;5050472;28;20193;-79
2022/05/14 00:32:13;;;;;;;12.03;11.23;;;;;;;15.51;66.58;92750.81;5050133;28;20282;-79
2022/05/14 00:34:38;;;;;;;10.87;9.93;;;;;;;15.51;66.90;92747.41;5049278;28;20258;-79
2022/05/14 00:37:04;;;;;;;11.30;10.47;;;;;;;15.55;67.65;92756.22;5048795;28;20238;-79
2022/05/14 00:39:29;;;;;;;11.47;10.77;;;;;;;15.43;67.97;92756.03;5049705;28;20252;-79
2022/05/14 00:41:54;;;;;;;11.83;11.00;;;;;;;15.31;68.58;92738.16;5049042;28;20217;-79
2022/05/14 00:44:20;;;;;;;11.63;10.83;;;;;;;15.37;68.91;92763.25;5048922;28;20209;-79
2022/05/14 00:46:55;;;;;;;11.10;10.30;;;;;;;15.31;69.37;92761.84;5048667;28;20237;-78
2022/05/14 00:49:24;;;;;;;13.13;12.13;;;;;;;15.28;69.86;92759.81;5049674;28;20201;-79
2022/05/14 00:51:50;;;;;;;10.60;9.90;;;;;;;15.22;70.33;92752.38;5050241;28;20945;-78
2022/05/14 00:54:21;;;;;;;12.43;11.73;;;;;;;15.10;71.09;92760.81;5053796;28;20257;-79
2022/05/14 00:56:52;;;;;;;11.43;10.73;;;;;;;15.20;70.01;92770.28;5053623;28;20240;-79
2022/05/14 00:59:20;;;;;;;11.80;10.90;;;;;;;15.19;70.75;92768.75;5052642;28;20232;-79
2022/05/14 01:01:46;;;;;;;11.73;11.03;;;;;;;15.03;71.44;92754.44;5053387;28;20228;-79
2022/05/14 01:04:13;;;;;;;10.80;10.20;;;;;;;14.94;71.26;92748.34;5054371;28;20190;-79
2022/05/14 01:06:41;;;;;;;11.70;10.90;;;;;;;15.00;71.42;92757.66;5053350;28;20234;-79
2022/05/14 01:09:07;;;;;;;11.97;11.20;;;;;;;14.76;72.03;92744.06;5053558;28;20201;-79
2022/05/14 01:11:38;;;;;;;11.90;11.20;;;;;;;14.69;72.52;92751.59;5053154;28;20466;-78
2022/05/14 01:14:03;;;;;;;12.00;10.90;;;;;;;14.48;73.02;92738.94;5053298;28;20241;-78
2022/05/14 01:16:30;;;;;;;11.63;10.90;;;;;;;14.47;73.37;92734.75;5053090;28;20232;-78
2022/05/14 01:18:55;;;;;;;12.03;11.23;;;;;;;14.43;73.41;92741.69;5052901;28;20285;-78
2022/05/14 01:21:44;;;;;;;12.13;11.13;;;;;;;14.56;73.79;92765.56;5052147;28;20263;-78
2022/05/14 01:27:06;;;;;;;11.43;10.73;;;;;;;14.49;73.80;92740.50;5051819;28;20237;-78
2022/05/14 01:29:32;;;;;;;12.50;11.70;;;;;;;14.08;74.70;92708.34;5052621;28;20277;-78
2022/05/14 01:31:57;;;;;;;11.47;10.67;;;;;;;14.55;74.58;92748.25;5052687;28;20278;-79
2022/05/14 01:34:30;;;;;;;12.23;11.30;;;;;;;14.47;74.65;92747.88;5052704;28;20194;-78
2022/05/14 01:36:56;;;;;;;11.17;10.37;;;;;;;14.33;74.49;92713.00;5052168;28;20226;-79
2022/05/14 01:39:23;;;;;;;12.73;11.87;;;;;;;14.39;74.88;92748.63;5052240;28;20213;-79
2022/05/14 01:41:49;;;;;;;11.87;11.03;;;;;;;14.46;74.86;92741.09;5053141;28;20265;-79
2022/05/14 01:44:15;;;;;;;12.10;11.20;;;;;;;14.36;74.89;92732.66;5053208;28;20181;-79
2022/05/14 01:46:41;;;;;;;11.57;10.77;;;;;;;14.24;75.15;92721.94;5053472;28;20242;-78
2022/05/14 01:49:06;;;;;;;11.43;10.33;;;;;;;14.24;75.26;92735.81;5053084;28;20218;-79
2022/05/14 01:51:32;;;;;;;10.93;10.13;;;;;;;14.32;75.24;92737.75;5051335;28;20238;-78
2022/05/14 01:53:58;;;;;;;11.00;10.30;;;;;;;14.07;75.36;92691.00;5051279;28;20193;-79
2022/05/14 01:56:24;;;;;;;11.77;11.07;;;;;;;14.35;75.31;92734.50;5052534;28;20237;-79
2022/05/14 01:58:49;;;;;;;12.00;11.20;;;;;;;14.11;75.83;92707.75;5052429;28;20201;-78
2022/05/14 02:01:20;;;;;;;12.90;12.00;;;;;;;14.40;75.28;92733.63;5050856;28;20268;-79
2022/05/14 02:03:53;;;;;;;11.57;10.77;;;;;;;14.08;75.84;92713.59;5051693;28;20182;-79
2022/05/14 02:06:19;;;;;;;11.47;10.67;;;;;;;14.23;75.50;92731.63;5050801;28;20236;-80
2022/05/14 02:08:45;;;;;;;11.23;10.53;;;;;;;14.04;76.39;92725.72;5053477;28;20190;-79
2022/05/14 02:11:11;;;;;;;12.47;11.60;;;;;;;14.12;76.03;92727.66;5052018;28;20253;-78
2022/05/14 02:13:37;;;;;;;11.57;10.77;;;;;;;14.18;76.03;92742.22;5052536;28;20182;-78
2022/05/14 02:16:03;;;;;;;11.10;10.30;;;;;;;14.04;76.19;92728.38;5052588;28;20244;-79
2022/05/14 02:18:29;;;;;;;11.47;10.60;;;;;;;14.00;76.85;92737.91;5052595;28;20178;-79
2022/05/14 02:20:54;;;;;;;12.73;11.93;;;;;;;14.17;76.07;92743.31;5051336;28;20224;-78
2022/05/14 02:23:20;;;;;;;11.77;10.97;;;;;;;14.18;75.41;92718.59;5052863;28;20257;-79
2022/05/14 02:25:46;;;;;;;11.73;10.83;;;;;;;14.21;74.91;92722.50;5051496;28;20218;-79
2022/05/14 02:28:12;;;;;;;12.40;11.60;;;;;;;14.24;75.16;92733.19;5050942;28;20189;-79
2022/05/14 02:30:37;;;;;;;11.97;11.23;;;;;;;14.22;75.44;92737.94;5052713;28;20202;-78
2022/05/14 02:33:03;;;;;;;11.00;10.20;;;;;;;14.22;75.52;92734.53;5052383;28;20202;-79
2022/05/14 02:35:28;;;;;;;12.43;11.63;;;;;;;14.02;75.72;92696.38;5052415;28;20229;-79
2022/05/14 02:37:54;;;;;;;11.80;11.00;;;;;;;14.11;75.60;92702.50;5051251;28;20257;-78
2022/05/14 02:40:19;;;;;;;12.23;11.33;;;;;;;14.13;76.17;92726.56;5052768;28;20229;-78
2022/05/14 02:42:45;;;;;;;11.77;10.80;;;;;;;14.07;76.38;92719.13;5050926;28;20226;-78
2022/05/14 02:45:12;;;;;;;12.87;11.90;;;;;;;13.83;76.23;92669.53;5051344;28;20204;-78
2022/05/14 02:47:37;;;;;;;12.80;11.77;;;;;;;14.08;76.80;92724.09;5050624;28;20919;-80
2022/05/14 02:50:05;;;;;;;13.30;12.13;;;;;;;14.18;76.70;92734.34;5051391;28;20186;-80
2022/05/14 02:52:31;;;;;;;12.80;11.93;;;;;;;14.02;77.01;92716.63;5052766;28;20344;-80
2022/05/14 02:54:56;;;;;;;12.80;11.80;;;;;;;13.89;77.11;92685.91;5051613;28;20190;-80
2022/05/14 02:57:21;;;;;;;13.20;12.20;;;;;;;13.99;77.32;92717.22;5050415;28;20226;-80
2022/05/14 02:59:47;;;;;;;11.93;11.20;;;;;;;13.80;77.19;92683.25;5051788;28;20217;-80
2022/05/14 03:02:13;;;;;;;12.70;11.90;;;;;;;14.07;77.61;92740.91;5051097;28;20278;-80
2022/05/14 03:04:40;;;;;;;13.23;12.10;;;;;;;13.97;77.47;92722.75;5050509;28;20181;-80
2022/05/14 03:07:07;;;;;;;11.70;10.80;;;;;;;14.13;77.58;92750.22;5049770;28;20233;-80
2022/05/14 03:09:34;;;;;;;12.27;11.47;;;;;;;14.03;77.67;92739.16;5051944;28;20270;-80
2022/05/14 03:11:59;;;;;;;12.13;11.33;;;;;;;13.70;77.62;92678.19;5049156;28;20229;-80
2022/05/14 03:14:25;;;;;;;12.43;11.63;;;;;;;14.21;77.27;92743.50;5049310;28;20209;-80
2022/05/14 03:16:51;;;;;;;12.23;11.37;;;;;;;14.24;76.54;92733.19;5050580;28;20763;-80
2022/05/14 03:19:17;;;;;;;12.27;11.30;;;;;;;14.29;76.84;92737.53;5050721;28;20197;-79
2022/05/14 03:21:42;;;;;;;12.43;11.50;;;;;;;14.22;77.32;92747.66;5051067;28;20229;-80
2022/05/14 03:24:10;;;;;;;13.37;12.27;;;;;;;14.24;77.36;92743.69;5051806;28;20277;-80
2022/05/14 03:26:39;;;;;;;13.67;12.47;;;;;;;14.12;77.40;92726.88;5050568;28;20238;-80
2022/05/14 03:29:05;;;;;;;12.90;11.93;;;;;;;14.10;77.40;92716.66;5050341;28;20189;-79
2022/05/14 03:31:34;;;;;;;12.83;11.73;;;;;;;14.28;77.62;92747.28;5050800;28;20241;-79
2022/05/14 03:34:00;;;;;;;11.73;11.03;;;;;;;14.21;77.43;92731.13;5050919;28;20206;-80
2022/05/14 03:36:25;;;;;;;13.00;12.00;;;;;;;14.29;77.65;92746.22;5050931;28;20237;-80
2022/05/14 03:38:52;;;;;;;11.77;10.90;;;;;;;13.99;77.49;92710.09;5051195;28;20197;-80
2022/05/14 03:41:17;;;;;;;12.37;11.47;;;;;;;14.26;78.01;92751.28;5049897;28;20222;-80
2022/05/14 03:43:44;;;;;;;12.93;12.13;;;;;;;14.34;77.49;92742.69;5049999;28;20206;-80
2022/05/14 03:46:10;;;;;;;12.53;11.63;;;;;;;13.97;77.86;92701.75;5049661;28;20226;-80
2022/05/14 03:48:36;;;;;;;11.90;11.00;;;;;;;14.26;77.25;92709.25;5049525;28;20656;-80
2022/05/14 03:51:03;;;;;;;12.03;11.10;;;;;;;14.54;76.87;92746.72;5050237;28;20222;-80
2022/05/14 03:53:29;;;;;;;11.27;10.50;;;;;;;14.61;76.39;92757.56;5048862;28;20190;-80
2022/05/14 03:55:55;;;;;;;11.33;10.53;;;;;;;14.57;75.79;92730.34;5050269;28;20222;-79
2022/05/14 03:58:21;;;;;;;12.50;11.63;;;;;;;15.03;75.15;92757.06;5050779;28;20194;-79
2022/05/14 04:00:46;;;;;;;11.70;10.97;;;;;;;15.16;74.11;92729.91;5049226;28;20206;-79
2022/05/14 04:03:12;;;;;;;11.97;11.17;;;;;;;15.42;73.91;92759.75;5049417;28;20258;-77
2022/05/14 04:05:39;;;;;;;11.80;11.00;;;;;;;15.23;74.91;92748.66;5049313;28;20214;-79
2022/05/14 04:08:12;;;;;;;12.03;11.23;;;;;;;15.18;74.84;92740.88;5048085;28;20273;-76
2022/05/14 04:10:41;;;;;;;11.23;10.53;;;;;;;15.16;75.25;92737.78;5048309;28;20194;-79
2022/05/14 04:13:06;;;;;;;12.93;11.83;;;;;;;15.39;74.90;92750.59;5047954;28;20209;-80
2022/05/14 04:15:32;;;;;;;12.90;11.87;;;;;;;15.80;73.08;92758.16;5048231;28;20194;-79
2022/05/14 04:17:57;;;;;;;12.27;11.40;;;;;;;15.37;73.97;92712.50;5047980;28;20240;-80
2022/05/14 04:20:23;;;;;;;12.93;11.93;;;;;;;15.91;73.39;92754.16;5047173;28;20201;-79
2022/05/14 04:22:50;;;;;;;11.97;11.17;;;;;;;15.90;73.94;92763.16;5047375;28;20233;-80
2022/05/14 04:25:16;;;;;;;13.50;12.20;;;;;;;15.93;72.70;92742.25;5049580;28;20192;-78
2022/05/14 04:27:41;;;;;;;11.67;10.97;;;;;;;16.14;72.45;92768.75;5048881;28;20232;-78
2022/05/14 04:30:09;;;;;;;13.27;12.33;;;;;;;16.46;71.33;92770.22;5048537;28;20189;-79
2022/05/14 04:32:36;;;;;;;12.40;11.50;;;;;;;16.71;70.50;92793.94;5047727;28;20226;-80
2022/05/14 04:35:01;;;;;;;12.93;11.87;;;;;;;17.10;68.16;92799.03;5046457;28;20236;-77
2022/05/14 04:37:27;;;;;;;13.40;12.23;;;;;;;17.31;66.33;92807.81;5045387;28;20214;-80
2022/05/14 04:39:52;;;;;;;13.90;12.70;;;;;;;17.32;65.14;92804.06;5047278;28;20221;-77
2022/05/14 04:42:18;;;;;;;13.20;12.07;;;;;;;17.32;64.71;92798.03;5047024;28;20313;-77
2022/05/14 04:44:43;;;;;;;13.53;12.53;;;;;;;17.16;65.60;92755.56;5048104;28;20234;-84
2022/05/14 04:47:10;;;;;;;14.60;13.40;;;;;;;17.76;64.67;92808.16;5047953;28;20229;-82
2022/05/14 04:49:39;;;;;;;13.37;12.30;;;;;;;17.74;64.60;92762.03;5048242;28;20210;-82
2022/05/14 04:52:05;;;;;;;14.30;13.07;;;;;;;18.08;63.62;92793.56;5048179;28;20234;-85
2022/05/14 04:54:30;;;;;;;13.90;12.60;;;;;;;18.33;62.53;92816.44;5049135;28;20190;-84
2022/05/14 04:56:56;;;;;;;12.37;11.17;;;;;;;17.46;65.80;92783.56;5047960;28;20227;-80
2022/05/14 04:59:21;;;;;;;14.57;13.17;;;;;;;17.63;65.19;92781.97;5047144;28;20281;-79
2022/05/14 05:04:34;;;;;;;15.57;14.13;;;;;;;17.42;67.51;92795.84;5035143;28;20240;-79
2022/05/14 05:07:00;;;;;;;14.60;13.13;;;;;;;17.50;67.23;92810.91;5046632;28;20226;-79
2022/05/14 05:09:26;;;;;;;15.23;13.83;;;;;;;17.50;67.60;92810.13;5048075;28;20273;-79
2022/05/14 05:11:51;;;;;;;14.37;13.20;;;;;;;17.51;68.78;92809.03;5046327;28;20218;-79
2022/05/14 05:14:17;;;;;;;14.13;12.83;;;;;;;17.51;67.69;92793.19;5046777;28;20260;-80
2022/05/14 05:16:43;;;;;;;14.37;13.17;;;;;;;17.33;69.60;92813.56;5049686;28;21024;-79
2022/05/14 05:19:09;;;;;;;14.37;12.97;;;;;;;17.41;68.32;92799.59;5048035;28;20186;-79
2022/05/14 05:21:35;;;;;;;13.43;12.37;;;;;;;17.35;69.47;92790.25;5047137;28;20253;-80
2022/05/14 05:24:05;;;;;;;15.10;13.67;;;;;;;17.67;68.80;92814.56;5048763;28;20198;-79
2022/05/14 05:26:31;;;;;;;14.20;12.90;;;;;;;17.82;67.83;92829.91;5048237;28;20694;-79
2022/05/14 05:28:57;;;;;;;12.87;11.87;;;;;;;17.36;69.33;92818.22;5048523;28;20198;-79
2022/05/14 05:31:25;;;;;;;13.93;12.73;;;;;;;17.53;68.21;92775.16;5048462;28;20237;-80
2022/05/14 05:33:51;;;;;;;14.47;13.10;;;;;;;18.13;65.36;92794.19;5048249;28;20207;-79
2022/05/14 05:36:16;;;;;;;16.03;14.70;;;;;;;18.75;64.24;92807.47;5047191;28;21232;-82
2022/05/14 05:39:11;;;;;;;13.60;12.53;;;;;;;19.72;58.96;92756.34;5051027;28;20195;-80
2022/05/14 05:41:37;;;;;;;14.50;13.40;;;;;;;21.24;54.58;92817.38;5051942;28;20234;-79
2022/05/14 05:44:03;;;;;;;14.40;13.13;;;;;;;24.87;44.48;92854.00;5053307;28;20203;-78
2022/05/14 05:46:31;;;;;;;13.82;12.27;;;;;;;24.87;44.05;92862.03;5050363;28;20240;-83
2022/05/14 05:48:56;;;;;;;15.25;13.73;;;;;;;23.16;47.45;92860.47;5048036;28;20261;-88
2022/05/14 05:51:21;;;;;;;15.45;14.05;;;;;;;20.34;55.73;92825.00;5049057;28;20229;-86
2022/05/14 05:56:46;;;;;;;15.27;13.90;;;;;;;20.70;54.76;92852.22;5050177;28;20236;-88
2022/05/14 05:59:14;;;;;;;16.30;14.73;;;;;;;20.49;55.38;92854.25;5050826;28;20244;-88
2022/05/14 06:01:40;;;;;;;15.85;14.25;;;;;;;21.12;53.41;92849.31;5048279;28;20296;-86
2022/05/14 06:04:06;;;;;;;15.52;14.02;;;;;;;24.87;45.10;92862.03;5048740;28;20189;-87
2022/05/14 06:06:32;;;;;;;13.82;12.73;;;;;;;25.43;42.36;92865.47;5081205;28;20740;-89
2022/05/14 06:08:59;;;;;;;14.23;12.93;;;;;;;28.46;36.58;92873.69;5050890;28;20189;-86
2022/05/14 06:11:25;;;;;;;13.57;12.43;;;;;;;28.68;34.93;92867.97;5047297;28;20230;-84
2022/05/14 06:13:51;;;;;;;13.18;11.95;;;;;;;26.41;38.99;92847.00;5049273;28;20189;-85
2022/05/14 06:16:16;;;;;;;17.00;12.15;;;;;;;31.10;30.87;92866.94;5050097;28;20241;-86
2022/05/14 06:18:42;;;;;;;14.00;12.50;;;;;;;31.79;29.07;92847.69;5047630;28;20181;-86
2022/05/14 06:21:09;;;;;;;12.70;11.68;;;;;;;32.18;29.05;92868.81;5047253;28;20235;-85
2022/05/14 06:23:35;;;;;;;12.13;11.23;;;;;;;32.99;27.97;92886.59;5045712;28;20196;-85
2022/05/14 06:26:01;;;;;;;13.82;11.60;;;;;;;32.72;28.09;92898.19;5047656;28;20381;-85
2022/05/14 06:28:26;;;;;;;13.90;11.98;;;;;;;32.17;28.88;92895.06;5050855;28;20208;-86
2022/05/14 06:30:52;;;;;;;13.05;11.68;;;;;;;30.54;30.99;92894.31;5049185;28;20200;-84
2022/05/14 06:33:18;;;;;;;13.25;11.95;;;;;;;26.47;38.49;92878.44;5049126;28;20221;-86
2022/05/14 06:35:45;;;;;;;12.98;11.90;;;;;;;24.26;43.58;92870.22;5049296;28;20191;-84
2022/05/14 06:38:13;;;;;;;14.00;12.75;;;;;;;22.99;46.88;92877.59;5082174;28;20181;-89
2022/05/14 06:40:39;;;;;;;19.45;17.42;;;;;;;22.30;47.98;92781.72;5047603;28;20231;-83
2022/05/14 06:43:05;;;;;;;13.52;12.43;;;;;;;21.74;50.97;92796.31;5049380;28;20177;-86
2022/05/14 06:45:31;;;;;;;14.68;13.35;;;;;;;21.47;54.38;92844.94;5049158;28;20189;-85
2022/05/14 06:47:57;;;;;;;12.30;11.32;;;;;;;21.46;54.66;92873.41;5048668;28;20231;-84
2022/05/14 06:50:25;;;;;;;16.23;14.52;;;;;;;21.92;51.93;92848.84;5045022;28;20218;-84
2022/05/14 06:52:55;;;;;;;14.55;13.07;;;;;;;21.94;52.85;92848.50;5047841;28;20229;-85
2022/05/14 06:55:24;;;;;;;14.98;13.57;;;;;;;21.21;53.03;92767.59;5050711;28;20218;-86
2022/05/14 06:57:51;;;;;;;14.13;12.73;;;;;;;22.33;53.29;92876.03;5048424;28;20258;-87
2022/05/14 07:00:18;;;;;;;12.35;11.25;;;;;;;21.97;54.01;92875.19;5050706;28;20223;-86
2022/05/14 07:02:46;;;;;;;14.05;12.90;;;;;;;22.20;53.42;92875.34;5049209;28;20320;-86
2022/05/14 07:07:57;;;;;;;12.15;11.25;;;;;;;21.69;53.76;92876.28;5049420;28;20265;-85
2022/05/14 07:10:22;;;;;;;13.80;12.40;;;;;;;22.02;52.70;92852.88;5049158;28;20205;-85
2022/05/14 07:12:49;;;;;;;13.48;12.48;;;;;;;22.49;52.10;92879.47;5050133;28;20240;-83
2022/05/14 07:15:15;;;;;;;13.90;12.60;;;;;;;22.16;53.38;92882.47;5048497;28;20332;-85
2022/05/14 07:17:41;;;;;;;12.80;11.80;;;;;;;22.58;53.87;92885.41;5048346;28;20254;-86
2022/05/14 07:20:07;;;;;;;12.02;11.07;;;;;;;22.90;51.90;92877.03;5048432;28;20218;-84
2022/05/14 07:22:32;;;;;;;12.95;11.95;;;;;;;22.99;50.29;92871.50;5050076;28;20253;-86
2022/05/14 07:24:58;;;;;;;13.10;12.10;;;;;;;22.75;51.49;92885.81;5048028;28;20187;-85
2022/05/14 07:27:23;;;;;;;13.20;12.02;;;;;;;22.98;50.69;92901.91;5045068;28;20225;-87
2022/05/14 07:29:49;;;;;;;12.88;11.88;;;;;;;22.86;51.70;92900.16;5047309;28;20188;-85
2022/05/14 07:32:17;;;;;;;14.55;13.20;;;;;;;23.05;50.87;92908.16;5047621;28;20307;-85
2022/05/14 07:34:42;;;;;;;12.02;11.13;;;;;;;22.97;50.82;92847.13;5048199;28;20191;-85
2022/05/14 07:37:21;;;;;;;12.68;11.63;;;;;;;23.00;50.57;92895.13;5047496;28;20227;-85
2022/05/14 07:40:03;;;;;;;12.10;11.25;;;;;;;23.18;50.99;92912.25;5048565;28;20239;-87
2022/05/14 07:43:01;;;;;;;13.00;11.95;;;;;;;23.28;50.26;92890.44;5047252;28;20233;-79
2022/05/14 07:45:37;;;;;;;13.10;11.90;;;;;;;22.83;50.30;92910.72;5046346;28;20207;-88
2022/05/14 07:48:07;;;;;;;13.48;12.38;;;;;;;22.10;53.18;92905.88;5046872;28;20206;-91
2022/05/14 07:50:32;;;;;;;13.38;12.20;;;;;;;22.57;51.51;92863.34;5047403;28;20197;-88
2022/05/14 07:52:58;;;;;;;12.50;11.40;;;;;;;23.00;50.42;92884.47;5047603;28;20239;-89
2022/05/14 07:55:24;;;;;;;13.55;12.50;;;;;;;23.03;52.18;92898.97;5049435;28;20197;-92
2022/05/14 07:57:49;;;;;;;12.35;11.18;;;;;;;23.57;49.58;92919.19;5048033;28;20232;-89
2022/05/14 08:00:15;;;;;;;12.20;11.27;;;;;;;23.16;50.35;92895.84;5046197;28;20219;-88
2022/05/14 08:02:43;;;;;;;12.63;11.55;;;;;;;23.19;50.02;92867.75;5046486;28;20315;-88
2022/05/14 08:05:10;;;;;;;12.80;11.80;;;;;;;23.33;48.85;92857.41;5046875;28;20303;-88
2022/05/14 08:07:37;;;;;;;12.60;11.57;;;;;;;23.70;49.57;92901.91;5046840;28;20243;-86
2022/05/14 08:10:05;;;;;;;13.30;12.20;;;;;;;23.77;49.38;92927.19;5046304;28;20192;-89
2022/05/14 08:12:38;;;;;;;12.50;11.60;;;;;;;23.30;48.73;92872.19;5047696;28;20231;-83
2022/05/14 08:15:04;;;;;;;12.15;11.20;;;;;;;23.38;50.33;92919.19;5046788;28;20188;-87
2022/05/14 08:17:29;;;;;;;13.10;12.13;;;;;;;23.41;51.12;92918.47;5047910;28;20237;-86
2022/05/14 08:19:55;;;;;;;13.95;12.52;;;;;;;22.82;50.48;92845.28;5044807;28;20209;-86
2022/05/14 08:25:07;;;;;;;13.23;12.02;;;;;;;23.72;48.75;92898.94;5045398;28;20237;-87
2022/05/14 08:27:44;;;;;;;13.20;12.15;;;;;;;23.26;51.46;92906.00;5046200;28;20238;-89
2022/05/14 08:30:14;;;;;;;13.93;12.52;;;;;;;23.46;50.43;92901.44;5046570;28;20267;-87
2022/05/14 08:32:40;;;;;;;12.10;11.15;;;;;;;23.58;49.59;92856.75;5046272;28;20326;-87
2022/05/14 08:35:06;;;;;;;13.35;12.25;;;;;;;23.36;50.99;92862.78;5063277;28;20208;-87
2022/05/14 08:37:31;;;;;;;12.90;11.77;;;;;;;23.57;49.67;92863.22;5046408;28;20224;-86
2022/05/14 08:39:57;;;;;;;12.65;11.65;;;;;;;23.00;50.89;92868.50;5045859;28;20229;-90
2022/05/14 08:42:22;;;;;;;13.40;12.07;;;;;;;23.84;50.06;92914.00;5045987;28;20312;-89
2022/05/14 08:44:49;;;;;;;11.90;11.10;;;;;;;23.54;48.60;92898.56;5048626;28;20196;-89
2022/05/14 08:47:40;;;;;;;13.60;12.48;;;;;;;23.43;50.50;92900.25;5047585;28;20232;-88
2022/05/14 08:50:07;;;;;;;11.73;10.93;;;;;;;23.80;48.81;92910.50;5046647;28;20200;-90
2022/05/14 08:52:35;;;;;;;13.27;12.20;;;;;;;24.11;47.35;92897.00;5046781;28;20234;-84
2022/05/14 08:55:05;;;;;;;12.55;11.43;;;;;;;23.94;48.78;92886.75;5047782;28;20923;-91
2022/05/14 08:57:48;;;;;;;12.10;11.20;;;;;;;24.11;47.10;92907.69;5045886;28;20311;-86
2022/05/14 09:00:15;;;;;;;12.93;11.75;;;;;;;23.92;48.61;92895.13;5046716;28;20216;-87
2022/05/14 09:02:50;;;;;;;13.85;12.40;;;;;;;23.86;49.06;92893.09;5044898;28;20236;-83
2022/05/14 09:05:20;;;;;;;13.18;12.02;;;;;;;23.82;51.10;92902.91;5046212;28;20294;-85
2022/05/14 09:07:46;;;;;;;11.57;10.73;;;;;;;23.20;49.11;92898.59;5045141;28;20234;-86
2022/05/14 09:10:26;;;;;;;12.35;11.25;;;;;;;24.09;47.51;92896.56;5048204;28;20196;-86
2022/05/14 09:13:10;;;;;;;12.60;11.48;;;;;;;24.24;48.48;92906.38;5048827;28;20228;-83
2022/05/14 09:15:47;;;;;;;12.45;11.45;;;;;;;24.98;47.46;92916.38;5051013;28;20251;-86
2022/05/14 09:18:19;;;;;;;12.85;11.75;;;;;;;24.44;47.11;92919.31;5051512;28;20222;-86
2022/05/14 09:20:54;;;;;;;13.55;12.55;;;;;;;24.64;48.97;92918.09;5048539;28;20217;-85
2022/05/14 09:23:46;;;;;;;13.05;12.00;;;;;;;24.53;48.50;92922.50;5052284;28;20208;-89
2022/05/14 09:26:20;;;;;;;13.52;12.43;;;;;;;24.23;48.12;92928.84;5044842;28;20226;-86
2022/05/14 09:28:55;;;;;;;13.18;12.10;;;;;;;24.44;48.63;92907.84;5048627;28;20195;-84
2022/05/14 09:31:36;;;;;;;12.40;11.40;;;;;;;24.63;47.51;92916.56;5049058;28;20262;-81
2022/05/14 09:34:14;;;;;;;13.40;12.40;;;;;;;24.53;47.13;92884.38;5049928;28;20203;-85
2022/05/14 09:36:42;;;;;;;13.48;12.38;;;;;;;24.54;46.61;92888.56;5049961;28;20267;-84
2022/05/14 09:39:15;;;;;;;13.13;11.98;;;;;;;24.97;46.09;92909.47;5050416;28;20203;-83
2022/05/14 09:41:49;;;;;;;11.60;10.80;;;;;;;24.77;46.45;92903.47;5050411;28;20255;-79
2022/05/14 09:44:25;;;;;;;12.80;11.80;;;;;;;24.42;47.90;92888.75;5051191;28;20195;-83
2022/05/14 09:47:03;;;;;;;11.82;10.95;;;;;;;24.66;46.76;92872.38;5048739;28;20334;-85
2022/05/14 09:49:29;;;;;;;12.57;11.57;;;;;;;24.78;45.86;92896.25;5050506;28;20243;-83
2022/05/14 09:52:08;;;;;;;13.18;12.00;;;;;;;24.63;46.67;92899.78;5049271;28;20230;-80
2022/05/14 09:54:47;;;;;;;12.88;11.80;;;;;;;23.90;48.53;92900.03;5081226;28;20192;-79
2022/05/14 09:57:22;;;;;;;12.20;11.27;;;;;;;22.88;56.08;92921.84;5050723;28;20331;-82
2022/05/14 10:00:12;;;;;;;14.25;12.57;;;;;;;21.18;70.19;92922.31;5050861;28;20222;-79
2022/05/14 10:02:41;;;;;;;14.57;13.27;;;;;;;21.15;72.55;92921.09;5050327;28;20228;-75
2022/05/14 10:05:11;;;;;;;14.65;13.50;;;;;;;21.13;74.84;92922.53;5050750;28;20177;-80
2022/05/14 10:07:45;;;;;;;14.43;13.13;;;;;;;21.64;74.94;92927.03;5051847;28;20284;-76
2022/05/14 10:10:35;;;;;;;15.95;14.55;;;;;;;21.80;75.89;92931.31;5051834;28;20208;-77
2022/05/14 10:13:08;;;;;;;15.35;14.07;;;;;;;20.77;75.25;92927.84;5050100;28;20203;-78
2022/05/14 10:15:50;;;;;;;16.52;14.95;;;;;;;20.81;77.74;92923.44;5050236;28;20189;-78
2022/05/14 10:18:49;;;;;;;16.60;15.10;;;;;;;20.60;77.92;92913.72;5030962;28;20247;-79
2022/05/14 10:21:27;;;;;;;15.70;14.23;;;;;;;20.91;74.24;92938.91;5029445;28;20231;-77
2022/05/14 10:27:25;;;;;;;16.67;15.18;;;;;;;20.61;85.00;92904.66;5029766;28;20242;-78
2022/05/14 10:30:13;;;;;;;16.05;14.75;;;;;;;21.08;82.02;92939.47;5037450;28;20220;-80
2022/05/14 10:32:40;;;;;;;16.50;15.05;;;;;;;21.02;83.44;92903.66;5029791;28;20230;-78
2022/05/14 10:35:19;;;;;;;17.02;15.43;;;;;;;21.29;84.00;92942.72;5029931;28;20210;-76
2022/05/14 10:38:14;;;;;;;16.38;14.85;;;;;;;21.41;82.49;92937.41;5047180;28;20219;-77
2022/05/14 10:40:46;;;;;;;16.27;14.75;;;;;;;21.49;82.99;92933.06;5050126;28;20218;-81
2022/05/14 10:43:38;;;;;;;17.02;15.50;;;;;;;21.08;83.60;92885.59;5048059;28;20255;-88
2022/05/14 10:46:10;;;;;;;16.05;14.52;;;;;;;21.21;81.35;92921.63;5050153;28;20228;-76
2022/05/14 10:48:44;;;;;;;15.05;13.85;;;;;;;21.37;79.86;92920.59;5049998;28;20191;-78
2022/05/14 10:51:18;;;;;;;16.63;15.13;;;;;;;21.49;79.78;92903.84;5049673;28;20215;-80
2022/05/14 10:53:45;;;;;;;16.42;15.05;;;;;;;22.37;77.63;92898.94;5051027;28;20192;-83
2022/05/14 10:56:28;;;;;;;16.67;15.02;;;;;;;22.97;75.20;92911.81;5049374;28;20855;-81
2022/05/14 10:59:02;;;;;;;16.50;14.10;;;;;;;23.22;71.51;92912.34;5049901;28;20236;-81
2022/05/14 11:01:36;;;;;;;15.60;13.13;;;;;;;23.04;70.07;92906.63;5050389;28;20239;-81
2022/05/14 11:04:20;;;;;;;15.73;14.48;;;;;;;22.75;74.16;92920.44;5048562;28;20230;-79
2022/05/14 11:06:59;;;;;;;15.30;14.10;;;;;;;21.95;76.71;92909.31;5048743;28;22435;-77
2022/05/14 11:09:31;;;;;;;16.67;15.18;;;;;;;21.68;77.83;92909.31;5047286;28;20187;-78
2022/05/14 11:12:01;;;;;;;15.23;13.93;;;;;;;21.43;73.76;92902.53;5048689;28;20247;-80
2022/05/14 11:14:39;;;;;;;16.10;14.70;;;;;;;21.11;79.54;92900.84;5046677;28;20253;-76
2022/05/14 11:17:16;;;;;;;15.57;14.27;;;;;;;21.27;78.71;92899.03;5048117;28;20234;-79
2022/05/14 11:19:42;;;;;;;16.85;15.30;;;;;;;20.87;81.25;92884.94;5047174;28;20200;-78
2022/05/14 11:22:18;;;;;;;16.33;14.70;;;;;;;21.00;83.31;92897.09;5047603;28;20234;-78
2022/05/14 11:24:44;;;;;;;14.57;13.40;;;;;;;21.09;80.78;92889.81;5048016;28;20207;-80
2022/05/14 11:27:10;;;;;;;15.30;13.80;;;;;;;21.47;80.99;92890.13;5045766;28;20229;-78
2022/05/14 11:29:55;;;;;;;14.65;13.35;;;;;;;21.92;78.24;92893.25;5046627;28;20331;-80
2022/05/14 11:32:24;;;;;;;15.93;14.30;;;;;;;21.88;79.37;92892.41;5046416;28;20280;-81
2022/05/14 11:34:51;;;;;;;14.07;12.93;;;;;;;22.28;76.57;92898.34;5048254;28;20252;-77
2022/05/14 11:37:27;;;;;;;14.88;13.48;;;;;;;22.51;73.87;92894.00;5046478;28;20299;-75
2022/05/14 11:40:35;;;;;;;15.98;13.40;;;;;;;22.74;73.46;92881.59;5047664;28;20900;-73
2022/05/14 11:43:20;;;;;;;14.02;12.68;;;;;;;22.75;69.12;92888.47;5045790;28;20232;-74
2022/05/14 11:45:57;;;;;;;12.90;11.70;;;;;;;23.14;70.05;92879.47;5046467;28;20198;-71